Time;durP1;ratioP1;P1;durP2;ratioP2;P2;SDS_P1;SDS_P2;PMS_P1;PMS_P2;Temp;Humidity;BMP_temperature;BMP_pressure;BME280_temperature;BME280_humidity;BME280_pressure;Samples;Min_cycle;Max_cycle;Signal;HPM_P1;HPM_P2
2022/03/26 00:07:55;;;;;;;19.38;9.75;;;3.00;71.80;;;;;;20706242;28;20033;-44
2022/03/26 00:17:57;;;;;;;18.98;9.88;;;2.90;71.20;;;;;;20762568;28;20033;-45
2022/03/26 00:28:01;;;;;;;19.63;9.88;;;3.00;71.60;;;;;;20728641;28;20038;-47
2022/03/26 00:38:03;;;;;;;20.88;10.60;;;2.90;71.80;;;;;;20761067;28;20112;-45
2022/03/26 00:48:05;;;;;;;22.02;10.02;;;2.90;72.50;;;;;;20724866;28;20038;-47
2022/03/26 00:58:08;;;;;;;21.63;10.07;;;2.80;72.80;;;;;;20678338;28;20498;-46
2022/03/26 01:08:11;;;;;;;25.02;11.40;;;2.70;73.20;;;;;;20677295;28;20124;-46
2022/03/26 01:18:13;;;;;;;23.10;11.60;;;2.60;73.90;;;;;;20677027;28;20065;-47
2022/03/26 01:28:17;;;;;;;23.25;11.00;;;2.60;74.10;;;;;;20703800;28;20030;-45
2022/03/26 01:38:19;;;;;;;21.75;10.93;;;2.60;73.90;;;;;;20756872;28;20054;-45
2022/03/26 01:48:22;;;;;;;30.92;11.88;;;2.60;74.10;;;;;;20755183;28;20440;-46
2022/03/26 01:58:24;;;;;;;23.60;11.38;;;2.50;74.80;;;;;;20723148;28;20065;-46
2022/03/26 02:08:27;;;;;;;23.02;10.93;;;2.40;74.40;;;;;;20726658;28;20039;-45
2022/03/26 02:18:29;;;;;;;22.20;10.65;;;2.40;74.20;;;;;;20657344;28;20038;-45
2022/03/26 02:28:34;;;;;;;22.02;10.10;;;2.50;73.40;;;;;;20673284;28;20105;-45
2022/03/26 02:38:37;;;;;;;20.35;10.75;;;2.30;73.80;;;;;;20656588;28;20050;-45
2022/03/26 02:48:42;;;;;;;25.02;10.50;;;2.20;73.60;;;;;;20712488;28;20100;-46
2022/03/26 02:58:44;;;;;;;20.60;10.40;;;2.20;73.00;;;;;;20766036;28;20038;-46
2022/03/26 03:08:47;;;;;;;22.63;11.13;;;2.50;72.00;;;;;;20769820;28;20428;-47
2022/03/26 03:18:50;;;;;;;21.45;10.23;;;2.60;72.60;;;;;;20767236;28;20092;-49
2022/03/26 03:28:53;;;;;;;24.92;11.55;;;2.40;73.60;;;;;;20686179;28;20064;-45
2022/03/26 03:38:55;;;;;;;20.58;9.45;;;2.40;73.80;;;;;;20684394;28;20100;-45
2022/03/26 03:48:57;;;;;;;23.60;10.32;;;2.30;73.90;;;;;;20683751;28;20034;-45
2022/03/26 03:59:00;;;;;;;22.63;11.02;;;2.40;74.20;;;;;;20683051;28;20374;-46
2022/03/26 04:09:02;;;;;;;23.38;10.93;;;2.50;75.60;;;;;;20714497;28;20428;-45
2022/03/26 04:19:05;;;;;;;21.13;11.20;;;2.40;76.90;;;;;;20762481;28;20042;-46
2022/03/26 04:29:07;;;;;;;21.33;10.63;;;2.40;77.40;;;;;;20761961;28;20489;-49
2022/03/26 04:39:10;;;;;;;25.23;11.27;;;2.20;77.70;;;;;;20744545;28;20100;-45
2022/03/26 04:49:13;;;;;;;21.52;11.32;;;2.20;79.10;;;;;;20715855;28;20042;-47
2022/03/26 04:59:15;;;;;;;25.73;11.90;;;2.10;79.40;;;;;;20678243;28;20042;-46
2022/03/26 05:09:18;;;;;;;26.08;11.90;;;2.10;79.40;;;;;;20677498;28;20030;-46
2022/03/26 05:19:22;;;;;;;20.48;10.70;;;2.30;79.00;;;;;;20676620;28;20038;-46
2022/03/26 05:29:25;;;;;;;22.23;11.30;;;2.30;78.80;;;;;;20745131;28;20041;-46
2022/03/26 05:39:28;;;;;;;22.48;10.65;;;2.40;78.70;;;;;;20724344;28;20115;-48
2022/03/26 05:49:31;;;;;;;24.45;11.15;;;2.50;78.80;;;;;;20756208;28;20034;-46
2022/03/26 05:59:33;;;;;;;24.08;10.23;;;2.80;78.00;;;;;;20739199;28;20030;-46
2022/03/26 06:09:37;;;;;;;21.75;10.68;;;2.80;77.70;;;;;;20717591;28;20035;-47
2022/03/26 06:19:39;;;;;;;21.40;10.38;;;3.00;77.50;;;;;;20641301;28;20030;-45
2022/03/26 06:29:41;;;;;;;21.35;10.18;;;3.10;77.60;;;;;;20679856;28;20162;-46
2022/03/26 06:39:45;;;;;;;19.23;9.80;;;3.40;76.30;;;;;;20688629;28;20085;-46
2022/03/26 06:49:47;;;;;;;22.83;9.68;;;3.80;74.40;;;;;;20738471;28;20265;-46
2022/03/26 06:59:50;;;;;;;22.63;9.80;;;4.60;72.10;;;;;;20769564;28;20389;-45
2022/03/26 07:09:52;;;;;;;24.80;10.13;;;5.60;68.90;;;;;;20769150;28;20384;-48
2022/03/26 07:19:54;;;;;;;20.77;9.55;;;7.00;65.10;;;;;;20734474;28;20061;-48
2022/03/26 07:29:57;;;;;;;16.48;8.85;;;8.50;61.20;;;;;;20660287;28;20486;-51
2022/03/26 07:40:00;;;;;;;21.27;10.43;;;9.50;57.90;;;;;;20682861;28;20456;-47
2022/03/26 07:50:06;;;;;;;18.65;10.18;;;10.30;56.20;;;;;;20684017;28;20041;-51
2022/03/26 08:00:09;;;;;;;16.58;9.35;;;11.00;54.00;;;;;;20667498;28;20035;-48
2022/03/26 08:10:18;;;;;;;14.50;8.18;;;11.70;53.60;;;;;;20694167;28;20519;-47
2022/03/26 08:20:20;;;;;;;15.52;9.02;;;11.90;54.00;;;;;;20762656;28;20065;-47
2022/03/26 08:30:22;;;;;;;16.77;9.82;;;12.40;50.90;;;;;;20754224;28;20046;-48
2022/03/26 08:40:25;;;;;;;17.23;9.98;;;12.30;51.40;;;;;;20675666;28;20069;-52
2022/03/26 08:50:28;;;;;;;20.80;11.65;;;12.20;51.40;;;;;;20674644;28;20910;-46
2022/03/26 09:00:30;;;;;;;21.08;12.00;;;12.20;51.10;;;;;;20675262;28;20101;-51
2022/03/26 09:10:33;;;;;;;17.95;10.68;;;12.20;51.60;;;;;;20673008;28;20386;-47
2022/03/26 09:20:36;;;;;;;23.35;9.63;;;12.40;52.30;;;;;;20672588;28;20445;-48
2022/03/26 09:30:38;;;;;;;20.30;11.77;;;12.60;51.20;;;;;;20671239;28;20034;-49
2022/03/26 09:40:43;;;;;;;18.88;11.20;;;13.40;50.00;;;;;;20667681;28;20042;-48
2022/03/26 09:50:54;;;;;;;17.92;9.80;;;13.90;48.80;;;;;;20670791;28;20058;-48
2022/03/26 10:00:59;;;;;;;16.83;10.38;;;14.20;53.20;;;;;;20637548;28;20030;-55
2022/03/26 10:11:01;;;;;;;22.10;12.30;;;15.30;50.60;;;;;;20668808;28;20093;-50
2022/03/26 10:21:11;;;;;;;18.67;10.50;;;15.80;50.00;;;;;;20652962;28;20050;-53
2022/03/26 10:41:40;;;;;;;18.67;11.40;;;15.90;48.00;;;;;;20668325;28;20387;-54
2022/03/26 10:51:42;;;;;;;16.98;10.85;;;15.90;49.90;;;;;;20672095;28;20042;-48
2022/03/26 11:01:47;;;;;;;20.17;11.40;;;16.40;48.40;;;;;;20651403;28;20286;-56
2022/03/26 11:11:50;;;;;;;29.23;16.60;;;16.50;49.20;;;;;;20667990;28;20034;-55
2022/03/26 11:22:34;;;;;;;18.30;11.07;;;16.40;48.70;;;;;;20682677;28;20038;-54
2022/03/26 11:32:43;;;;;;;19.17;11.85;;;15.60;49.60;;;;;;20680896;28;20042;-55
2022/03/26 11:42:49;;;;;;;20.98;12.88;;;16.10;48.80;;;;;;20680212;28;20097;-56
2022/03/26 11:52:52;;;;;;;22.08;13.25;;;16.90;52.40;;;;;;20679797;28;20105;-55
2022/03/26 12:02:54;;;;;;;23.83;14.07;;;17.50;52.80;;;;;;20679054;28;20104;-57
2022/03/26 12:12:57;;;;;;;26.35;14.52;;;17.60;53.60;;;;;;20675007;28;20038;-57
2022/03/26 12:23:06;;;;;;;29.92;16.83;;;18.00;52.30;;;;;;20678499;28;20093;-57
2022/03/26 12:33:11;;;;;;;26.93;15.23;;;17.90;51.80;;;;;;20676402;28;20097;-55
2022/03/26 12:43:13;;;;;;;27.13;16.33;;;17.70;51.10;;;;;;20659944;28;20108;-55
2022/03/26 12:53:17;;;;;;;26.38;15.25;;;17.60;51.20;;;;;;20674677;28;20381;-49
2022/03/26 13:03:28;;;;;;;27.40;16.02;;;17.30;52.80;;;;;;20674244;28;20035;-50
2022/03/26 13:13:32;;;;;;;24.95;14.63;;;17.50;52.00;;;;;;20655953;28;20406;-50
2022/03/26 13:23:34;;;;;;;24.92;14.68;;;17.50;52.80;;;;;;20672487;28;20085;-56
2022/03/26 13:33:37;;;;;;;26.23;15.70;;;17.40;53.00;;;;;;20671569;28;20109;-51
2022/03/26 13:43:42;;;;;;;27.23;15.32;;;17.70;51.60;;;;;;20671357;28;20506;-52
2022/03/26 13:53:44;;;;;;;28.00;15.27;;;17.50;51.30;;;;;;20669027;28;20426;-56
2022/03/26 14:03:57;;;;;;;25.48;15.57;;;17.10;51.70;;;;;;20669019;28;20046;-52
2022/03/26 14:13:59;;;;;;;25.52;15.15;;;16.80;52.10;;;;;;20669425;28;20061;-52
2022/03/26 14:24:03;;;;;;;25.45;14.80;;;16.80;51.40;;;;;;20667062;28;20579;-55
2022/03/26 14:34:06;;;;;;;25.17;14.63;;;16.60;50.70;;;;;;20667851;28;20101;-55
2022/03/26 14:44:08;;;;;;;38.05;17.30;;;16.00;52.30;;;;;;20670634;28;20038;-53
2022/03/26 14:54:10;;;;;;;32.30;15.88;;;15.30;53.90;;;;;;20678674;28;20114;-53
2022/03/26 15:04:13;;;;;;;26.17;14.55;;;14.80;53.50;;;;;;20683073;28;20046;-54
2022/03/26 15:14:15;;;;;;;31.33;17.10;;;14.30;55.80;;;;;;20666156;28;20114;-52
2022/03/26 15:24:19;;;;;;;32.30;17.70;;;13.80;56.90;;;;;;20681910;28;20057;-52
2022/03/26 15:34:22;;;;;;;33.53;17.15;;;13.20;58.10;;;;;;20681281;28;20101;-55
2022/03/26 15:44:24;;;;;;;36.03;18.48;;;12.70;57.90;;;;;;20680450;28;20069;-47
2022/03/26 15:54:26;;;;;;;40.20;18.77;;;12.30;58.80;;;;;;20679190;28;20134;-46
2022/03/26 16:04:29;;;;;;;36.28;17.10;;;11.60;59.60;;;;;;20677218;28;20547;-52
2022/03/26 16:14:31;;;;;;;34.95;18.15;;;11.00;62.90;;;;;;20662107;28;20184;-53
2022/03/26 16:24:35;;;;;;;34.20;16.88;;;10.40;65.00;;;;;;20676900;28;20401;-47
2022/03/26 16:34:39;;;;;;;34.40;18.42;;;9.80;65.80;;;;;;20676167;28;20124;-46
2022/03/26 16:44:43;;;;;;;35.88;18.05;;;9.30;65.70;;;;;;20675508;28;20034;-46
2022/03/26 16:54:46;;;;;;;32.97;16.70;;;8.70;68.00;;;;;;20674455;28;20042;-48
2022/03/26 17:04:48;;;;;;;36.55;19.80;;;8.10;70.50;;;;;;20673807;28;20096;-46
2022/03/26 17:14:50;;;;;;;37.42;18.85;;;7.70;71.60;;;;;;20671927;28;20394;-50
2022/03/26 17:24:54;;;;;;;35.60;20.60;;;7.20;72.90;;;;;;20674662;28;20528;-45
2022/03/26 17:34:56;;;;;;;35.97;18.20;;;6.70;73.80;;;;;;20672231;28;20074;-51
2022/03/26 17:44:59;;;;;;;35.30;17.92;;;6.30;75.80;;;;;;20638655;28;20038;-45
2022/03/26 17:55:02;;;;;;;33.30;17.65;;;5.90;76.60;;;;;;20670714;28;20478;-49
2022/03/26 18:05:07;;;;;;;37.67;18.90;;;5.50;78.50;;;;;;20669989;28;20042;-45
2022/03/26 18:15:10;;;;;;;33.83;17.75;;;5.10;79.10;;;;;;20669924;28;20034;-47
2022/03/26 18:25:13;;;;;;;33.50;17.70;;;4.90;80.20;;;;;;20674492;28;20105;-58
2022/03/26 18:35:19;;;;;;;35.58;17.50;;;4.70;80.50;;;;;;20678374;28;20101;-58
2022/03/26 18:45:22;;;;;;;30.10;16.98;;;4.80;79.30;;;;;;20680451;28;20038;-60
2022/03/26 18:55:25;;;;;;;36.05;16.05;;;4.60;78.50;;;;;;20683092;28;20405;-59
2022/03/26 19:05:27;;;;;;;32.17;16.40;;;4.40;80.60;;;;;;20679825;28;20058;-60
2022/03/26 19:15:30;;;;;;;28.65;14.52;;;4.20;80.40;;;;;;20682329;28;20073;-59
2022/03/26 19:25:34;;;;;;;24.00;14.38;;;4.30;77.80;;;;;;20681437;28;20097;-58
2022/03/26 19:35:36;;;;;;;25.27;13.13;;;4.30;76.30;;;;;;20681268;28;20093;-59
2022/03/26 19:45:39;;;;;;;25.52;13.43;;;4.20;73.50;;;;;;20684119;28;20030;-66
2022/03/26 19:55:42;;;;;;;26.23;11.57;;;4.30;72.80;;;;;;20678565;28;20474;-59
2022/03/26 20:05:45;;;;;;;19.88;11.27;;;4.10;70.90;;;;;;20577425;28;20109;-60
2022/03/26 20:15:47;;;;;;;23.00;12.15;;;4.10;71.00;;;;;;20556539;28;20046;-59
2022/03/26 20:25:51;;;;;;;23.10;10.95;;;3.80;70.80;;;;;;20555748;28;20066;-58
2022/03/26 20:35:54;;;;;;;16.45;9.30;;;3.60;70.10;;;;;;20555313;28;20502;-58
2022/03/26 20:45:57;;;;;;;20.02;8.68;;;3.50;69.60;;;;;;20543906;28;20486;-59
2022/03/26 20:56:00;;;;;;;15.35;7.68;;;3.60;66.30;;;;;;20561540;28;20086;-60
2022/03/26 21:06:03;;;;;;;14.80;7.50;;;3.90;65.50;;;;;;20593448;28;20039;-58
2022/03/26 21:16:07;;;;;;;14.43;7.65;;;4.10;63.50;;;;;;20593054;28;20043;-60
2022/03/26 21:26:11;;;;;;;11.50;6.53;;;4.00;63.10;;;;;;20558216;28;20038;-59
2022/03/26 21:36:17;;;;;;;13.15;6.10;;;3.80;65.40;;;;;;20614257;28;20054;-59
2022/03/26 21:46:20;;;;;;;13.25;6.50;;;3.60;65.10;;;;;;20653668;28;20096;-59
2022/03/26 21:56:22;;;;;;;12.45;6.22;;;3.60;63.30;;;;;;20671239;28;20061;-60
2022/03/26 22:06:24;;;;;;;11.93;6.30;;;3.50;64.90;;;;;;20670430;28;20142;-63
2022/03/26 22:16:27;;;;;;;13.98;7.45;;;3.30;65.00;;;;;;20653447;28;20034;-66
2022/03/26 22:26:31;;;;;;;16.17;6.90;;;3.20;64.50;;;;;;20637081;28;20073;-64
2022/03/26 22:36:33;;;;;;;13.30;6.78;;;3.20;65.90;;;;;;20652731;28;20054;-61
2022/03/26 22:46:36;;;;;;;13.13;7.10;;;3.20;66.20;;;;;;20668936;28;20042;-60
2022/03/26 22:56:38;;;;;;;16.15;8.07;;;3.10;66.00;;;;;;20668319;28;20089;-59
2022/03/26 23:06:41;;;;;;;12.65;7.28;;;3.30;64.20;;;;;;20668258;28;20034;-59
2022/03/26 23:16:44;;;;;;;14.27;7.38;;;3.40;64.90;;;;;;20680971;28;20066;-59
2022/03/26 23:26:48;;;;;;;13.00;7.18;;;3.50;64.30;;;;;;20681792;28;20117;-59
2022/03/26 23:36:50;;;;;;;16.02;7.57;;;3.40;64.00;;;;;;20681256;28;20125;-60
2022/03/26 23:46:54;;;;;;;12.55;6.85;;;3.60;63.30;;;;;;20681541;28;20038;-61
2022/03/26 23:56:56;;;;;;;15.85;7.47;;;3.80;62.40;;;;;;20679483;28;20038;-62
